createdAt,value
2023-02-05T00:01:57.812Z,-0.16
2023-02-05T00:07:03.012Z,-0.24
2023-02-05T00:12:07.071Z,-0.42
2023-02-05T00:17:10.758Z,-0.52
2023-02-05T00:22:15.618Z,-0.52
2023-02-05T00:27:18.923Z,-0.48
2023-02-05T00:32:22.524Z,-0.52
2023-02-05T00:37:27.585Z,-0.54
2023-02-05T00:42:30.984Z,-0.69
2023-02-05T00:47:34.599Z,-0.61
2023-02-05T00:52:39.538Z,-0.50
2023-02-05T00:57:43.164Z,-0.49
2023-02-05T01:02:46.672Z,-0.42
2023-02-05T01:07:51.785Z,-0.38
2023-02-05T01:12:55.105Z,-0.47
2023-02-05T01:18:00.261Z,-0.43
2023-02-05T01:23:05.084Z,-0.30
2023-02-05T01:28:08.456Z,-0.20
2023-02-05T01:33:11.905Z,-0.32
2023-02-05T01:38:17.016Z,-0.23
2023-02-05T01:43:20.956Z,-0.23
2023-02-05T01:48:30.564Z,-0.19
2023-02-05T01:53:37.593Z,-0.25
2023-02-05T01:58:47.133Z,-0.20
2023-02-05T02:03:52.518Z,-0.29
2023-02-05T02:08:57.573Z,-0.25
2023-02-05T02:14:06.600Z,-0.23
2023-02-05T02:19:19.890Z,-0.21
2023-02-05T02:25:19.305Z,-0.25
2023-02-05T02:30:29.266Z,-0.17
2023-02-05T02:35:42.713Z,-0.14
2023-02-05T02:40:50.163Z,-0.23
2023-02-05T02:46:01.398Z,-0.28
2023-02-05T02:51:07.728Z,-0.41
2023-02-05T02:56:13.804Z,-0.48
2023-02-05T03:01:21.475Z,-0.50
2023-02-05T03:06:24.998Z,-0.62
2023-02-05T03:11:29.114Z,-0.91
2023-02-05T03:16:34.349Z,-1.19
2023-02-05T03:21:43.232Z,-1.48
2023-02-05T03:26:46.623Z,-1.74
2023-02-05T03:32:00.229Z,-1.95
2023-02-05T03:37:15.273Z,-2.02
2023-02-05T03:42:31.430Z,-2.17
2023-02-05T03:47:46.744Z,-2.27
2023-02-05T03:52:56.589Z,-2.40
2023-02-05T03:58:03.899Z,-2.54
2023-02-05T04:03:08.714Z,-2.70
2023-02-05T04:08:12.037Z,-2.83
2023-02-05T04:13:15.353Z,-3.16
2023-02-05T04:18:20.942Z,-3.26
2023-02-05T04:23:24.481Z,-3.34
2023-02-05T04:28:28.085Z,-3.40
2023-02-05T04:33:32.924Z,-3.45
2023-02-05T04:38:36.980Z,-3.55
2023-02-05T04:43:40.438Z,-3.54
2023-02-05T04:48:45.617Z,-3.66
2023-02-05T04:53:49.075Z,-3.74
2023-02-05T04:58:52.676Z,-3.87
2023-02-05T05:03:57.534Z,-3.84
2023-02-05T05:09:01.341Z,-3.83
2023-02-05T05:14:04.860Z,-3.85
2023-02-05T05:19:10.234Z,-3.87
2023-02-05T05:24:13.632Z,-3.91
2023-02-05T05:29:17.242Z,-3.94
2023-02-05T05:34:22.137Z,-4.08
2023-02-05T05:39:42.925Z,-4.17
2023-02-05T05:44:50.342Z,-4.18
2023-02-05T05:49:55.353Z,-4.10
2023-02-05T05:54:58.765Z,-3.99
2023-02-05T06:00:03.039Z,-3.85
2023-02-05T06:05:09.043Z,-3.62
2023-02-05T06:10:12.667Z,-3.38
2023-02-05T06:15:16.134Z,-2.94
2023-02-05T06:20:21.087Z,-2.71
2023-02-05T06:25:24.670Z,-2.53
2023-02-05T06:30:28.296Z,-2.36
2023-02-05T06:35:33.562Z,-1.64
2023-02-05T06:40:37.403Z,1.51
2023-02-05T06:45:40.879Z,1.83
2023-02-05T06:50:47.571Z,0.51
2023-02-05T06:55:50.932Z,-0.27
2023-02-05T07:00:54.501Z,2.11
2023-02-05T07:06:03.642Z,8.50
2023-02-05T07:11:07.228Z,12.37
2023-02-05T07:16:10.835Z,15.11
2023-02-05T07:21:17.611Z,17.15
2023-02-05T07:26:21.100Z,18.57
2023-02-05T07:31:24.888Z,19.94
2023-02-05T07:36:29.960Z,21.38
2023-02-05T07:41:33.640Z,21.96
2023-02-05T07:46:37.348Z,22.83
2023-02-05T07:51:42.318Z,22.46
2023-02-05T07:56:45.979Z,21.81
2023-02-05T08:01:49.620Z,22.97
2023-02-05T08:06:54.592Z,23.60
2023-02-05T08:11:58.173Z,23.66
2023-02-05T08:17:02.165Z,21.90
2023-02-05T08:22:07.062Z,22.72
2023-02-05T08:27:10.630Z,22.86
2023-02-05T08:32:14.217Z,22.66
2023-02-05T08:37:19.255Z,22.83
2023-02-05T08:42:22.804Z,21.90
2023-02-05T08:47:27.816Z,20.14
2023-02-05T08:52:32.824Z,19.22
2023-02-05T08:57:36.905Z,17.22
2023-02-05T09:02:41.932Z,14.00
2023-02-05T09:07:46.896Z,11.90
2023-02-05T09:12:50.196Z,10.26
2023-02-05T09:17:53.846Z,8.39
2023-02-05T09:22:58.570Z,7.14
2023-02-05T09:28:02.611Z,6.05
2023-02-05T09:33:05.980Z,5.37
2023-02-05T09:38:11.926Z,4.87
2023-02-05T09:43:28.963Z,5.06
2023-02-05T09:48:51.202Z,5.40
2023-02-05T09:54:01.917Z,5.16
2023-02-05T09:59:06.905Z,4.65
2023-02-05T10:04:11.673Z,4.32
2023-02-05T10:09:32.735Z,3.96
2023-02-05T10:14:49.302Z,3.44
2023-02-05T10:20:08.910Z,3.11
2023-02-05T10:25:50.957Z,2.85
2023-02-05T10:31:00.077Z,2.77
2023-02-05T10:36:07.479Z,2.85
2023-02-05T10:41:22.354Z,3.16
2023-02-05T10:46:32.583Z,3.13
2023-02-05T10:51:41.776Z,2.91
2023-02-05T10:56:47.117Z,2.70
2023-02-05T11:01:52.263Z,2.67
2023-02-05T11:06:56.109Z,2.52
2023-02-05T11:12:04.020Z,2.38
2023-02-05T11:17:21.738Z,2.39
2023-02-05T11:22:30.370Z,2.37
2023-02-05T11:27:36.347Z,2.41
2023-02-05T11:32:40.350Z,2.29
2023-02-05T11:37:44.678Z,2.05
2023-02-05T11:43:00.221Z,1.94
2023-02-05T11:48:07.160Z,1.93
2023-02-05T11:53:16.588Z,1.95
2023-02-05T11:58:36.138Z,1.91
2023-02-05T12:03:40.235Z,1.83
2023-02-05T12:08:49.710Z,1.93
2023-02-05T12:14:07.367Z,1.97
2023-02-05T12:19:18.055Z,2.02
2023-02-05T12:24:40.830Z,2.05
2023-02-05T12:30:05.240Z,1.99
2023-02-05T12:35:25.506Z,1.67
2023-02-05T12:40:45.332Z,1.77
2023-02-05T12:46:01.418Z,1.78
2023-02-05T12:51:14.458Z,1.65
2023-02-05T12:56:33.077Z,1.66
2023-02-05T13:01:44.017Z,1.63
2023-02-05T13:06:53.794Z,1.56
2023-02-05T13:12:00.945Z,1.50
2023-02-05T13:17:14.237Z,1.50
2023-02-05T13:22:38.832Z,1.49
2023-02-05T13:28:02.616Z,1.35
2023-02-05T13:33:08.706Z,1.22
2023-02-05T13:38:33.720Z,1.14
2023-02-05T13:44:02.409Z,0.95
2023-02-05T13:49:46.997Z,0.91
2023-02-05T13:55:09.120Z,0.94
2023-02-05T14:00:15.922Z,0.92
2023-02-05T14:05:30.663Z,0.85
2023-02-05T14:10:39.313Z,0.80
2023-02-05T14:15:44.270Z,0.51
2023-02-05T14:20:47.988Z,0.35
2023-02-05T14:26:11.197Z,0.37
2023-02-05T14:31:59.682Z,0.29
2023-02-05T14:37:03.517Z,0.24
2023-02-05T14:42:09.726Z,0.36
2023-02-05T14:47:22.979Z,0.35
2023-02-05T14:52:29.843Z,0.30
2023-02-05T14:57:43.757Z,0.31
2023-02-05T15:03:28.787Z,0.37
2023-02-05T15:08:44.445Z,0.39
2023-02-05T15:14:20.294Z,0.27
2023-02-05T15:19:25.197Z,0.36
2023-02-05T15:24:29.323Z,0.58
2023-02-05T15:29:37.347Z,0.56
2023-02-05T15:34:47.269Z,0.59
2023-02-05T15:39:54.813Z,0.60
2023-02-05T15:44:58.528Z,0.62
2023-02-05T15:50:05.534Z,0.65
2023-02-05T15:55:15.063Z,0.63
2023-02-05T16:00:24.001Z,0.67
2023-02-05T16:05:30.477Z,0.73
2023-02-05T16:10:36.591Z,0.77
2023-02-05T16:15:43.496Z,0.72
2023-02-05T16:20:52.445Z,0.79
2023-02-05T16:25:59.172Z,0.85
2023-02-05T16:31:03.571Z,0.84
2023-02-05T16:36:16.672Z,0.85
2023-02-05T16:41:25.322Z,0.81
2023-02-05T16:46:30.651Z,0.80
2023-02-05T16:51:56.704Z,0.81
2023-02-05T16:57:05.693Z,0.68
2023-02-05T17:02:27.616Z,0.75
2023-02-05T17:07:34.160Z,0.66
2023-02-05T17:12:40.978Z,0.62
2023-02-05T17:17:52.025Z,0.61
2023-02-05T17:23:14.601Z,0.45
2023-02-05T17:28:21.689Z,0.25
2023-02-05T17:33:27.067Z,0.17
2023-02-05T17:38:32.077Z,0.20
2023-02-05T17:43:35.617Z,0.09
2023-02-05T17:48:40.111Z,0.06
2023-02-05T17:53:45.071Z,0.11
2023-02-05T17:58:48.701Z,0.11
2023-02-05T18:03:52.154Z,0.00
2023-02-05T18:08:57.148Z,0.01
2023-02-05T18:14:00.685Z,-0.07
2023-02-05T18:19:04.371Z,-0.19
2023-02-05T18:24:09.405Z,-0.12
2023-02-05T18:29:13.137Z,-0.10
2023-02-05T18:34:16.821Z,-0.21
2023-02-05T18:39:21.809Z,-0.36
2023-02-05T18:44:25.773Z,-0.50
2023-02-05T18:49:29.416Z,-0.52
2023-02-05T18:54:34.703Z,-0.54
2023-02-05T18:59:38.422Z,-0.69
2023-02-05T19:04:42.202Z,-0.72
2023-02-05T19:09:47.226Z,-0.64
2023-02-05T19:14:51.013Z,-0.76
2023-02-05T19:19:55.275Z,-0.73
2023-02-05T19:25:00.298Z,-0.61
2023-02-05T19:30:04.065Z,-0.68
2023-02-05T19:35:08.159Z,-0.61
2023-02-05T19:40:15.515Z,-0.65
2023-02-05T19:45:18.977Z,-0.74
2023-02-05T19:50:22.677Z,-0.74
2023-02-05T19:55:27.681Z,-0.62
2023-02-05T20:00:31.359Z,-0.66
2023-02-05T20:05:37.331Z,-0.58
2023-02-05T20:10:42.394Z,-0.90
2023-02-05T20:15:45.941Z,-0.87
2023-02-05T20:20:49.604Z,-0.93
2023-02-05T20:25:59.023Z,-0.83
2023-02-05T20:31:20.161Z,-0.92
2023-02-05T20:36:23.695Z,-1.12
2023-02-05T20:41:29.251Z,-1.10
2023-02-05T20:46:33.211Z,-1.16
2023-02-05T20:51:37.550Z,-1.11
2023-02-05T20:56:42.899Z,-1.07
2023-02-05T21:01:46.704Z,-1.20
2023-02-05T21:06:50.562Z,-1.30
2023-02-05T21:11:55.864Z,-1.39
2023-02-05T21:16:59.559Z,-1.39
2023-02-05T21:22:03.099Z,-1.35
2023-02-05T21:27:08.248Z,-1.48
2023-02-05T21:32:11.815Z,-1.36
2023-02-05T21:37:15.596Z,-1.51
2023-02-05T21:42:20.643Z,-1.52
2023-02-05T21:47:24.263Z,-1.55
2023-02-05T21:52:27.734Z,-1.55
2023-02-05T21:57:32.798Z,-1.65
2023-02-05T22:02:36.198Z,-1.83
2023-02-05T22:07:39.968Z,-1.72
2023-02-05T22:12:44.702Z,-1.71
2023-02-05T22:17:48.010Z,-1.58
2023-02-05T22:22:51.537Z,-1.69
2023-02-05T22:27:56.776Z,-1.66
2023-02-05T22:33:00.227Z,-1.74
2023-02-05T22:38:03.835Z,-1.90
2023-02-05T22:43:11.445Z,-1.83
2023-02-05T22:48:15.078Z,-1.75
2023-02-05T22:53:18.435Z,-1.88
2023-02-05T22:58:23.450Z,-1.74
2023-02-05T23:03:26.918Z,-1.73
2023-02-05T23:08:30.551Z,-1.69
2023-02-05T23:13:35.559Z,-1.61
2023-02-05T23:18:39.538Z,-1.67
2023-02-05T23:23:43.724Z,-1.77
2023-02-05T23:28:49.052Z,-1.78
2023-02-05T23:33:53.168Z,-1.90
2023-02-05T23:38:58.303Z,-1.90
2023-02-05T23:44:04.332Z,-2.00
2023-02-05T23:49:08.677Z,-2.12
2023-02-05T23:54:13.226Z,-2.14
2023-02-05T23:59:18.343Z,-2.03
